Time,TemperatureF,DewpointF,PressureIn,WindDirection,WindDirectionDegrees,WindSpeedMPH,WindSpeedGustMPH,Humidity,HourlyPrecipIn,Conditions,Clouds,dailyrainin,SoftwareType,DateUTC
2013-02-02 00:00:00,39.8,38.8,30.39,WSW,247,0.0,0.0,96,0.00,,---,0.00,VWS V14.01,2013-02-02 08:00:00,
2013-02-02 00:05:00,40.0,39.2,30.39,NE,39,0.0,0.0,97,0.00,,---,0.00,VWS V14.01,2013-02-02 08:05:00,
2013-02-02 00:10:00,40.1,39.3,30.39,NE,39,0.0,0.0,97,0.00,,---,0.00,VWS V14.01,2013-02-02 08:10:00,
2013-02-02 00:15:00,40.1,39.0,30.40,NE,39,0.0,0.0,96,0.00,,---,0.00,VWS V14.01,2013-02-02 08:15:00,
2013-02-02 00:20:00,40.1,39.0,30.40,NE,44,0.0,0.0,96,0.00,,---,0.00,VWS V14.01,2013-02-02 08:20:00,
2013-02-02 00:25:00,40.0,39.0,30.40,WNW,300,0.0,0.0,96,0.00,,---,0.00,VWS V14.01,2013-02-02 08:25:00,
2013-02-02 00:30:00,40.0,39.0,30.39,East,88,0.0,0.0,96,0.00,,---,0.00,VWS V14.01,2013-02-02 08:30:00,
2013-02-02 00:35:00,40.1,39.3,30.39,ESE,123,1.0,3.0,97,0.00,,---,0.00,VWS V14.01,2013-02-02 08:35:00,
2013-02-02 00:40:00,40.2,39.4,30.39,NNE,24,1.0,5.0,97,0.00,,---,0.00,VWS V14.01,2013-02-02 08:40:00,
2013-02-02 00:45:00,40.3,39.5,30.39,SSE,153,1.0,5.0,97,0.00,,---,0.00,VWS V14.01,2013-02-02 08:45:00,
2013-02-02 00:50:00,40.2,39.2,30.39,ENE,61,0.0,4.0,96,0.00,,---,0.00,VWS V14.01,2013-02-02 08:50:00,
2013-02-02 00:55:00,40.1,39.0,30.39,East,98,0.0,4.0,96,0.00,,---,0.00,VWS V14.01,2013-02-02 08:55:00,
2013-02-02 01:00:00,40.0,39.0,30.39,ESE,121,0.0,4.0,96,0.00,,---,0.00,VWS V14.01,2013-02-02 09:00:00,
2013-02-02 01:05:00,40.1,39.0,30.39,SE,124,0.0,0.0,96,0.00,,---,0.00,VWS V14.01,2013-02-02 09:05:00,
2013-02-02 01:10:00,40.2,39.4,30.39,North,355,0.0,2.0,97,0.00,,---,0.00,VWS V14.01,2013-02-02 09:10:00,
2013-02-02 01:15:00,40.3,39.5,30.39,NE,50,3.0,3.0,97,0.00,,---,0.00,VWS V14.01,2013-02-02 09:15:00,
2013-02-02 01:20:00,40.5,39.7,30.40,West,263,0.0,3.0,97,0.00,,---,0.00,VWS V14.01,2013-02-02 09:20:00,
2013-02-02 01:25:00,40.7,39.9,30.40,NNE,24,0.0,6.0,97,0.00,,---,0.00,VWS V14.01,2013-02-02 09:25:00,
2013-02-02 01:30:00,40.9,40.1,30.40,ENE,61,1.0,6.0,97,0.00,,---,0.00,VWS V14.01,2013-02-02 09:30:00,
2013-02-02 01:35:00,41.1,40.3,30.40,WNW,288,1.0,4.0,97,0.00,,---,0.00,VWS V14.01,2013-02-02 09:35:00,
2013-02-02 01:40:00,41.2,40.4,30.40,NW,323,0.0,4.0,97,0.00,,---,0.00,VWS V14.01,2013-02-02 09:40:00,
2013-02-02 01:45:00,41.2,40.4,30.39,East,84,2.0,4.0,97,0.00,,---,0.00,VWS V14.01,2013-02-02 09:45:00,
2013-02-02 01:50:00,41.3,40.5,30.40,WNW,290,2.0,7.0,97,0.00,,---,0.00,VWS V14.01,2013-02-02 09:50:00,
2013-02-02 01:55:00,41.3,40.2,30.39,NNW,334,0.0,7.0,96,0.00,,---,0.00,VWS V14.01,2013-02-02 09:55:00,
2013-02-02 02:00:00,41.4,40.3,30.39,North,355,2.0,7.0,96,0.00,,---,0.00,VWS V14.01,2013-02-02 10:00:00,
2013-02-02 02:05:00,41.4,40.3,30.39,East,91,2.0,2.0,96,0.00,,---,0.00,VWS V14.01,2013-02-02 10:05:00,
2013-02-02 02:10:00,41.4,40.3,30.39,South,169,1.0,5.0,96,0.00,,---,0.00,VWS V14.01,2013-02-02 10:10:00,
2013-02-02 02:15:00,41.5,40.5,30.39,West,279,0.0,5.0,96,0.00,,---,0.00,VWS V14.01,2013-02-02 10:15:00,
2013-02-02 02:20:00,41.5,40.5,30.39,ENE,77,0.0,3.0,96,0.00,,---,0.00,VWS V14.01,2013-02-02 10:20:00,
2013-02-02 02:25:00,41.5,40.5,30.39,WNW,287,3.0,6.0,96,0.00,,---,0.00,VWS V14.01,2013-02-02 10:25:00,
2013-02-02 02:30:00,41.6,40.5,30.40,WSW,247,1.0,6.0,96,0.00,,---,0.00,VWS V14.01,2013-02-02 10:30:00,
2013-02-02 02:35:00,41.6,40.5,30.39,NNW,333,2.0,4.0,96,0.00,,---,0.00,VWS V14.01,2013-02-02 10:35:00,
2013-02-02 02:40:00,41.6,40.5,30.39,East,85,0.0,5.0,96,0.00,,---,0.00,VWS V14.01,2013-02-02 10:40:00,
2013-02-02 02:45:00,41.6,40.5,30.39,NNE,31,2.0,5.0,96,0.00,,---,0.00,VWS V14.01,2013-02-02 10:45:00,
2013-02-02 02:50:00,41.7,40.7,30.39,WSW,240,1.0,3.0,96,0.00,,---,0.00,VWS V14.01,2013-02-02 10:50:00,
2013-02-02 02:55:00,41.7,40.7,30.39,WNW,294,2.0,4.0,96,0.00,,---,0.00,VWS V14.01,2013-02-02 10:55:00,
2013-02-02 03:00:00,41.8,40.8,30.39,ENE,62,1.0,4.0,96,0.00,,---,0.00,VWS V14.01,2013-02-02 11:00:00,
2013-02-02 03:05:00,41.8,40.8,30.39,SSW,209,1.0,3.0,96,0.00,,---,0.00,VWS V14.01,2013-02-02 11:05:00,
2013-02-02 03:10:00,41.8,40.8,30.38,NNW,336,1.0,4.0,96,0.00,,---,0.00,VWS V14.01,2013-02-02 11:10:00,
2013-02-02 03:15:00,41.8,40.8,30.38,NW,319,1.0,5.0,96,0.00,,---,0.00,VWS V14.01,2013-02-02 11:15:00,
2013-02-02 03:20:00,41.7,40.4,30.38,NNE,13,0.0,3.0,95,0.00,,---,0.00,VWS V14.01,2013-02-02 11:20:00,
2013-02-02 03:25:00,41.8,40.5,30.38,NE,49,0.0,3.0,95,0.00,,---,0.00,VWS V14.01,2013-02-02 11:25:00,
2013-02-02 03:30:00,41.8,40.5,30.38,NE,55,3.0,4.0,95,0.00,,---,0.00,VWS V14.01,2013-02-02 11:30:00,
2013-02-02 03:35:00,41.8,40.8,30.38,ENE,66,0.0,5.0,96,0.00,,---,0.00,VWS V14.01,2013-02-02 11:35:00,
2013-02-02 03:40:00,41.8,40.5,30.38,SE,124,0.0,5.0,95,0.00,,---,0.00,VWS V14.01,2013-02-02 11:40:00,
2013-02-02 03:45:00,41.8,40.5,30.38,WSW,253,0.0,6.0,95,0.00,,---,0.00,VWS V14.01,2013-02-02 11:45:00,
2013-02-02 03:50:00,41.8,40.5,30.37,NW,321,2.0,6.0,95,0.00,,---,0.00,VWS V14.01,2013-02-02 11:50:00,
2013-02-02 03:55:00,41.7,40.4,30.37,WNW,282,1.0,6.0,95,0.00,,---,0.00,VWS V14.01,2013-02-02 11:55:00,
2013-02-02 04:00:00,41.7,40.4,30.37,NW,323,0.0,6.0,95,0.00,,---,0.00,VWS V14.01,2013-02-02 12:00:00,
2013-02-02 04:05:00,41.7,40.4,30.37,NNE,28,2.0,4.0,95,0.00,,---,0.00,VWS V14.01,2013-02-02 12:05:00,
2013-02-02 04:10:00,41.7,40.4,30.36,South,176,0.0,4.0,95,0.00,,---,0.00,VWS V14.01,2013-02-02 12:10:00,
2013-02-02 04:15:00,41.6,40.3,30.36,WNW,285,0.0,4.0,95,0.00,,---,0.00,VWS V14.01,2013-02-02 12:15:00,
2013-02-02 04:20:00,41.6,40.3,30.36,ESE,123,1.0,2.0,95,0.00,,---,0.00,VWS V14.01,2013-02-02 12:20:00,
2013-02-02 04:25:00,41.6,40.3,30.37,East,87,5.0,13.0,95,0.00,,---,0.00,VWS V14.01,2013-02-02 12:25:00,
2013-02-02 04:30:00,41.5,40.2,30.36,NW,310,3.0,13.0,95,0.00,,---,0.00,VWS V14.01,2013-02-02 12:30:00,
2013-02-02 04:35:00,41.5,40.5,30.36,West,263,2.0,7.0,96,0.00,,---,0.00,VWS V14.01,2013-02-02 12:35:00,
2013-02-02 04:40:00,41.5,40.5,30.36,East,94,1.0,7.0,96,0.00,,---,0.00,VWS V14.01,2013-02-02 12:40:00,
2013-02-02 04:45:00,41.5,40.5,30.36,NE,36,0.0,7.0,96,0.00,,---,0.00,VWS V14.01,2013-02-02 12:45:00,
2013-02-02 04:50:00,41.5,40.5,30.36,ESE,105,0.0,2.0,96,0.00,,---,0.00,VWS V14.01,2013-02-02 12:50:00,
2013-02-02 04:55:00,41.5,40.5,30.36,SW,236,0.0,5.0,96,0.00,,---,0.00,VWS V14.01,2013-02-02 12:55:00,
2013-02-02 05:00:00,41.5,40.5,30.36,East,94,0.0,5.0,96,0.00,,---,0.00,VWS V14.01,2013-02-02 13:00:00,
2013-02-02 05:05:00,41.4,40.3,30.36,NE,42,2.0,6.0,96,0.00,,---,0.00,VWS V14.01,2013-02-02 13:05:00,
2013-02-02 05:10:00,41.4,40.3,30.36,NNW,338,1.0,7.0,96,0.00,,---,0.00,VWS V14.01,2013-02-02 13:10:00,
2013-02-02 05:15:00,41.4,40.3,30.36,NW,316,1.0,7.0,96,0.00,,---,0.00,VWS V14.01,2013-02-02 13:15:00,
2013-02-02 05:20:00,41.4,40.3,30.35,West,265,0.0,3.0,96,0.00,,---,0.00,VWS V14.01,2013-02-02 13:20:00,
2013-02-02 05:25:00,41.4,40.3,30.35,NE,36,0.0,3.0,96,0.00,,---,0.00,VWS V14.01,2013-02-02 13:25:00,
2013-02-02 05:30:00,41.3,40.2,30.35,East,88,0.0,3.0,96,0.00,,---,0.00,VWS V14.01,2013-02-02 13:30:00,
2013-02-02 05:35:00,41.3,40.2,30.35,SE,126,4.0,4.0,96,0.00,,---,0.00,VWS V14.01,2013-02-02 13:35:00,
2013-02-02 05:40:00,41.3,40.2,30.35,SW,215,2.0,4.0,96,0.00,,---,0.00,VWS V14.01,2013-02-02 13:40:00,
2013-02-02 05:45:00,41.2,40.2,30.34,NW,304,3.0,4.0,96,0.00,,---,0.00,VWS V14.01,2013-02-02 13:45:00,
2013-02-02 05:50:00,41.2,40.2,30.34,NNE,23,0.0,3.0,96,0.00,,---,0.00,VWS V14.01,2013-02-02 13:50:00,
2013-02-02 05:55:00,41.2,40.2,30.34,North,355,0.0,5.0,96,0.00,,---,0.00,VWS V14.01,2013-02-02 13:55:00,
2013-02-02 06:00:00,41.3,40.2,30.34,WNW,288,0.0,5.0,96,0.00,,---,0.00,VWS V14.01,2013-02-02 14:00:00,
2013-02-02 06:05:00,41.2,40.2,30.34,NE,45,1.0,5.0,96,0.00,,---,0.00,VWS V14.01,2013-02-02 14:05:00,
2013-02-02 06:10:00,41.1,40.0,30.34,NNE,29,2.0,7.0,96,0.00,,---,0.00,VWS V14.01,2013-02-02 14:10:00,
2013-02-02 06:15:00,41.0,40.0,30.34,NE,53,0.0,7.0,96,0.00,,---,0.00,VWS V14.01,2013-02-02 14:15:00,
2013-02-02 06:20:00,40.9,39.8,30.34,NNW,329,2.0,9.0,96,0.00,,---,0.00,VWS V14.01,2013-02-02 14:20:00,
2013-02-02 06:25:00,40.9,39.8,30.34,WSW,248,2.0,9.0,96,0.00,,---,0.00,VWS V14.01,2013-02-02 14:25:00,
2013-02-02 06:30:00,40.8,39.8,30.34,North,351,2.0,9.0,96,0.00,,---,0.00,VWS V14.01,2013-02-02 14:30:00,
2013-02-02 06:35:00,40.8,39.8,30.34,ESE,123,1.0,3.0,96,0.00,,---,0.00,VWS V14.01,2013-02-02 14:35:00,
2013-02-02 06:40:00,40.8,39.8,30.34,NNW,343,1.0,3.0,96,0.00,,---,0.00,VWS V14.01,2013-02-02 14:40:00,
2013-02-02 06:45:00,40.8,39.8,30.34,WNW,295,0.0,3.0,96,0.00,,---,0.00,VWS V14.01,2013-02-02 14:45:00,
2013-02-02 06:50:00,40.8,39.8,30.34,NW,309,0.0,2.0,96,0.00,,---,0.00,VWS V14.01,2013-02-02 14:50:00,
2013-02-02 06:55:00,40.8,39.8,30.34,WNW,282,0.0,2.0,96,0.00,,---,0.00,VWS V14.01,2013-02-02 14:55:00,
2013-02-02 07:00:00,40.8,39.8,30.34,ENE,76,2.0,2.0,96,0.00,,---,0.00,VWS V14.01,2013-02-02 15:00:00,
2013-02-02 07:05:00,40.8,39.8,30.34,ESE,111,0.0,3.0,96,0.00,,---,0.00,VWS V14.01,2013-02-02 15:05:00,
2013-02-02 07:10:00,40.8,39.8,30.34,NNE,32,3.0,4.0,96,0.00,,---,0.00,VWS V14.01,2013-02-02 15:10:00,
2013-02-02 07:15:00,40.9,39.8,30.34,NW,316,0.0,4.0,96,0.00,,---,0.00,VWS V14.01,2013-02-02 15:15:00,
2013-02-02 07:20:00,40.8,39.8,30.33,North,355,1.0,5.0,96,0.00,,---,0.00,VWS V14.01,2013-02-02 15:20:00,
2013-02-02 07:25:00,40.8,39.8,30.34,NNE,19,0.0,6.0,96,0.00,,---,0.00,VWS V14.01,2013-02-02 15:25:00,
2013-02-02 07:30:00,40.8,39.5,30.34,ENE,72,0.0,6.0,95,0.00,,---,0.00,VWS V14.01,2013-02-02 15:30:00,
2013-02-02 07:35:00,40.7,39.4,30.34,SE,144,2.0,6.0,95,0.00,,---,0.00,VWS V14.01,2013-02-02 15:35:00,
2013-02-02 07:40:00,40.7,39.4,30.34,NNW,348,1.0,6.0,95,0.00,,---,0.00,VWS V14.01,2013-02-02 15:40:00,
2013-02-02 07:45:00,40.7,39.4,30.33,NNE,30,0.0,6.0,95,0.00,,---,0.00,VWS V14.01,2013-02-02 15:45:00,
2013-02-02 07:50:00,40.7,39.4,30.33,WSW,248,3.0,3.0,95,0.00,,---,0.00,VWS V14.01,2013-02-02 15:50:00,
2013-02-02 07:55:00,40.7,39.4,30.34,ESE,115,0.0,3.0,95,0.00,,---,0.00,VWS V14.01,2013-02-02 15:55:00,
2013-02-02 08:00:00,40.7,39.4,30.34,WSW,252,0.0,3.0,95,0.00,,---,0.00,VWS V14.01,2013-02-02 16:00:00,
2013-02-02 08:05:00,40.7,39.4,30.34,WNW,289,2.0,4.0,95,0.00,,---,0.00,VWS V14.01,2013-02-02 16:05:00,
2013-02-02 08:10:00,40.7,39.4,30.34,East,98,0.0,4.0,95,0.00,,---,0.00,VWS V14.01,2013-02-02 16:10:00,
2013-02-02 08:15:00,40.7,39.4,30.34,North,355,2.0,4.0,95,0.00,,---,0.00,VWS V14.01,2013-02-02 16:15:00,
2013-02-02 08:20:00,40.7,39.4,30.34,WNW,303,0.0,3.0,95,0.00,,---,0.00,VWS V14.01,2013-02-02 16:20:00,
2013-02-02 08:25:00,40.7,39.4,30.34,North,360,2.0,7.0,95,0.00,,---,0.00,VWS V14.01,2013-02-02 16:25:00,
2013-02-02 08:30:00,40.6,39.3,30.34,NNE,32,0.0,7.0,95,0.00,,---,0.00,VWS V14.01,2013-02-02 16:30:00,
2013-02-02 08:35:00,40.6,39.0,30.34,East,80,1.0,5.0,94,0.00,,---,0.00,VWS V14.01,2013-02-02 16:35:00,
2013-02-02 08:40:00,40.5,38.9,30.34,WSW,241,3.0,7.0,94,0.00,,---,0.00,VWS V14.01,2013-02-02 16:40:00,
2013-02-02 08:45:00,40.4,38.8,30.34,East,86,1.0,7.0,94,0.00,,---,0.00,VWS V14.01,2013-02-02 16:45:00,
2013-02-02 08:50:00,40.4,39.1,30.34,South,189,1.0,4.0,95,0.00,,---,0.00,VWS V14.01,2013-02-02 16:50:00,
2013-02-02 08:55:00,40.3,39.0,30.34,SW,221,0.0,4.0,95,0.00,,---,0.00,VWS V14.01,2013-02-02 16:55:00,
2013-02-02 09:00:00,40.3,39.0,30.34,West,281,0.0,5.0,95,0.00,,---,0.00,VWS V14.01,2013-02-02 17:00:00,
2013-02-02 09:05:00,40.4,39.1,30.34,NE,37,1.0,6.0,95,0.00,,---,0.00,VWS V14.01,2013-02-02 17:05:00,
2013-02-02 09:10:00,40.4,39.1,30.34,SSE,162,1.0,6.0,95,0.00,,---,0.00,VWS V14.01,2013-02-02 17:10:00,
2013-02-02 09:15:00,40.4,39.1,30.34,NNE,16,0.0,6.0,95,0.00,,---,0.00,VWS V14.01,2013-02-02 17:15:00,
2013-02-02 09:20:00,40.4,39.1,30.34,NE,45,0.0,6.0,95,0.00,,---,0.00,VWS V14.01,2013-02-02 17:20:00,
2013-02-02 09:25:00,40.4,38.8,30.34,West,268,0.0,6.0,94,0.00,,---,0.00,VWS V14.01,2013-02-02 17:25:00,
2013-02-02 09:30:00,40.4,39.1,30.34,NNE,28,1.0,6.0,95,0.00,,---,0.00,VWS V14.01,2013-02-02 17:30:00,
2013-02-02 09:35:00,40.5,39.2,30.34,North,349,0.0,1.0,95,0.00,,---,0.00,VWS V14.01,2013-02-02 17:35:00,
2013-02-02 09:40:00,40.7,39.4,30.34,NW,313,0.0,4.0,95,0.00,,---,0.00,VWS V14.01,2013-02-02 17:40:00,
2013-02-02 09:45:00,40.7,39.1,30.34,East,100,0.0,4.0,94,0.00,,---,0.00,VWS V14.01,2013-02-02 17:45:00,
2013-02-02 09:50:00,40.8,39.2,30.34,West,270,2.0,3.0,94,0.00,,---,0.00,VWS V14.01,2013-02-02 17:50:00,
2013-02-02 09:55:00,40.9,39.3,30.34,WNW,298,1.0,4.0,94,0.00,,---,0.00,VWS V14.01,2013-02-02 17:55:00,
2013-02-02 10:00:00,41.0,39.4,30.34,West,259,5.0,5.0,94,0.00,,---,0.00,VWS V14.01,2013-02-02 18:00:00,
2013-02-02 10:05:00,41.0,39.4,30.34,NE,44,3.0,4.0,94,0.00,,---,0.00,VWS V14.01,2013-02-02 18:05:00,
2013-02-02 10:10:00,41.0,39.4,30.34,ESE,104,1.0,4.0,94,0.00,,---,0.00,VWS V14.01,2013-02-02 18:10:00,
2013-02-02 10:15:00,41.1,39.5,30.34,WNW,290,1.0,4.0,94,0.00,,---,0.00,VWS V14.01,2013-02-02 18:15:00,
2013-02-02 10:20:00,41.0,39.1,30.34,West,274,1.0,5.0,93,0.00,,---,0.00,VWS V14.01,2013-02-02 18:20:00,
2013-02-02 10:25:00,41.0,39.4,30.34,NE,39,2.0,5.0,94,0.00,,---,0.00,VWS V14.01,2013-02-02 18:25:00,
2013-02-02 10:30:00,41.1,39.5,30.34,NNE,28,0.0,5.0,94,0.00,,---,0.00,VWS V14.01,2013-02-02 18:30:00,
2013-02-02 10:35:00,41.2,39.3,30.34,NE,53,0.0,4.0,93,0.00,,---,0.00,VWS V14.01,2013-02-02 18:35:00,
2013-02-02 10:40:00,41.3,39.4,30.33,NNW,345,0.0,4.0,93,0.00,,---,0.00,VWS V14.01,2013-02-02 18:40:00,
2013-02-02 10:45:00,41.5,39.6,30.33,ESE,119,0.0,4.0,93,0.00,,---,0.00,VWS V14.01,2013-02-02 18:45:00,
2013-02-02 10:50:00,41.6,39.7,30.33,NNE,19,2.0,2.0,93,0.00,,---,0.00,VWS V14.01,2013-02-02 18:50:00,
2013-02-02 10:55:00,41.9,40.0,30.33,North,5,2.0,4.0,93,0.00,,---,0.00,VWS V14.01,2013-02-02 18:55:00,
2013-02-02 11:00:00,42.0,40.1,30.33,WSW,251,1.0,4.0,93,0.00,,---,0.00,VWS V14.01,2013-02-02 19:00:00,
2013-02-02 11:05:00,42.2,40.3,30.33,NNW,332,0.0,3.0,93,0.00,,---,0.00,VWS V14.01,2013-02-02 19:05:00,
2013-02-02 11:10:00,42.3,40.4,30.33,NE,44,0.0,3.0,93,0.00,,---,0.00,VWS V14.01,2013-02-02 19:10:00,
2013-02-02 11:15:00,42.4,40.2,30.33,ESE,104,1.0,5.0,92,0.00,,---,0.00,VWS V14.01,2013-02-02 19:15:00,
2013-02-02 11:20:00,42.5,40.3,30.33,WNW,298,1.0,2.0,92,0.00,,---,0.00,VWS V14.01,2013-02-02 19:20:00,
2013-02-02 11:25:00,42.5,40.1,30.33,WSW,256,0.0,4.0,91,0.00,,---,0.00,VWS V14.01,2013-02-02 19:25:00,
2013-02-02 11:30:00,42.3,39.9,30.33,West,260,3.0,5.0,91,0.00,,---,0.00,VWS V14.01,2013-02-02 19:30:00,
2013-02-02 11:35:00,42.3,39.9,30.33,WNW,292,0.0,4.0,91,0.00,,---,0.00,VWS V14.01,2013-02-02 19:35:00,
2013-02-02 11:40:00,42.5,40.1,30.33,West,265,3.0,4.0,91,0.00,,---,0.00,VWS V14.01,2013-02-02 19:40:00,
2013-02-02 11:45:00,42.3,39.9,30.33,West,277,5.0,6.0,91,0.00,,---,0.00,VWS V14.01,2013-02-02 19:45:00,
2013-02-02 11:50:00,42.1,39.7,30.32,WSW,239,3.0,4.0,91,0.00,,---,0.00,VWS V14.01,2013-02-02 19:50:00,
2013-02-02 11:55:00,42.1,39.7,30.32,WNW,284,6.0,7.0,91,0.00,,---,0.00,VWS V14.01,2013-02-02 19:55:00,
2013-02-02 12:00:00,42.2,40.0,30.32,West,262,2.0,7.0,92,0.00,,---,0.00,VWS V14.01,2013-02-02 20:00:00,
2013-02-02 12:05:00,42.4,40.2,30.32,West,269,3.0,3.0,92,0.00,,---,0.00,VWS V14.01,2013-02-02 20:05:00,
2013-02-02 12:10:00,42.3,39.9,30.32,West,273,1.0,5.0,91,0.00,,---,0.00,VWS V14.01,2013-02-02 20:10:00,
2013-02-02 12:15:00,42.5,40.1,30.32,ENE,69,0.0,5.0,91,0.00,,---,0.00,VWS V14.01,2013-02-02 20:15:00,
2013-02-02 12:20:00,42.6,40.2,30.32,ENE,69,3.0,4.0,91,0.00,,---,0.00,VWS V14.01,2013-02-02 20:20:00,
2013-02-02 12:25:00,42.7,39.7,30.31,West,267,3.0,6.0,89,0.00,,---,0.00,VWS V14.01,2013-02-02 20:25:00,
2013-02-02 12:30:00,42.6,39.9,30.31,West,267,3.0,6.0,90,0.00,,---,0.00,VWS V14.01,2013-02-02 20:30:00,
2013-02-02 12:35:00,42.8,40.1,30.31,NW,306,2.0,4.0,90,0.00,,---,0.00,VWS V14.01,2013-02-02 20:35:00,
2013-02-02 12:40:00,42.9,40.2,30.31,ENE,67,0.0,4.0,90,0.00,,---,0.00,VWS V14.01,2013-02-02 20:40:00,
2013-02-02 12:45:00,43.0,40.0,30.31,NW,321,1.0,5.0,89,0.00,,---,0.00,VWS V14.01,2013-02-02 20:45:00,
2013-02-02 12:50:00,43.1,40.1,30.31,North,5,0.0,0.0,89,0.00,,---,0.00,VWS V14.01,2013-02-02 20:50:00,
2013-02-02 12:55:00,43.4,40.4,30.30,NNE,13,0.0,4.0,89,0.00,,---,0.00,VWS V14.01,2013-02-02 20:55:00,
2013-02-02 13:00:00,43.6,40.3,30.30,East,88,0.0,4.0,88,0.00,,---,0.00,VWS V14.01,2013-02-02 21:00:00,
2013-02-02 13:05:00,43.8,40.5,30.30,East,84,3.0,6.0,88,0.00,,---,0.00,VWS V14.01,2013-02-02 21:05:00,
2013-02-02 13:10:00,43.9,40.9,30.30,West,260,0.0,6.0,89,0.00,,---,0.00,VWS V14.01,2013-02-02 21:10:00,
2013-02-02 13:15:00,43.8,40.5,30.30,WSW,250,0.0,6.0,88,0.00,,---,0.00,VWS V14.01,2013-02-02 21:15:00,
2013-02-02 13:20:00,43.4,40.1,30.30,WSW,237,1.0,5.0,88,0.00,,---,0.00,VWS V14.01,2013-02-02 21:20:00,
2013-02-02 13:25:00,43.4,40.4,30.30,WSW,254,0.0,5.0,89,0.00,,---,0.00,VWS V14.01,2013-02-02 21:25:00,
2013-02-02 13:30:00,43.4,40.1,30.30,West,271,3.0,5.0,88,0.00,,---,0.00,VWS V14.01,2013-02-02 21:30:00,
2013-02-02 13:35:00,43.5,40.2,30.29,SSE,150,0.0,0.0,88,0.00,,---,0.00,VWS V14.01,2013-02-02 21:35:00,
2013-02-02 13:40:00,43.7,40.4,30.29,SW,219,0.0,0.0,88,0.00,,---,0.00,VWS V14.01,2013-02-02 21:40:00,
2013-02-02 13:45:00,44.0,40.7,30.29,SSW,200,2.0,2.0,88,0.00,,---,0.00,VWS V14.01,2013-02-02 21:45:00,
2013-02-02 13:50:00,44.1,40.5,30.29,SW,223,1.0,3.0,87,0.00,,---,0.00,VWS V14.01,2013-02-02 21:50:00,
2013-02-02 13:55:00,44.2,40.6,30.29,NE,43,1.0,3.0,87,0.00,,---,0.00,VWS V14.01,2013-02-02 21:55:00,
2013-02-02 14:00:00,44.4,40.8,30.29,SSW,197,2.0,3.0,87,0.00,,---,0.00,VWS V14.01,2013-02-02 22:00:00,
2013-02-02 14:05:00,44.4,40.8,30.28,West,259,0.0,3.0,87,0.00,,---,0.00,VWS V14.01,2013-02-02 22:05:00,
2013-02-02 14:10:00,44.4,40.8,30.28,SSW,196,0.0,3.0,87,0.00,,---,0.00,VWS V14.01,2013-02-02 22:10:00,
2013-02-02 14:15:00,44.5,40.9,30.28,South,181,0.0,3.0,87,0.00,,---,0.00,VWS V14.01,2013-02-02 22:15:00,
2013-02-02 14:20:00,44.8,41.2,30.28,SW,229,1.0,3.0,87,0.00,,---,0.00,VWS V14.01,2013-02-02 22:20:00,
2013-02-02 14:25:00,45.0,41.1,30.28,WSW,242,4.0,4.0,86,0.00,,---,0.00,VWS V14.01,2013-02-02 22:25:00,
2013-02-02 14:30:00,44.8,40.9,30.28,West,279,4.0,6.0,86,0.00,,---,0.00,VWS V14.01,2013-02-02 22:30:00,
2013-02-02 14:35:00,44.9,41.3,30.28,West,277,0.0,3.0,87,0.00,,---,0.00,VWS V14.01,2013-02-02 22:35:00,
2013-02-02 14:40:00,45.2,41.3,30.28,South,169,0.0,3.0,86,0.00,,---,0.00,VWS V14.01,2013-02-02 22:40:00,
2013-02-02 14:45:00,45.3,41.4,30.28,ESE,123,0.0,3.0,86,0.00,,---,0.00,VWS V14.01,2013-02-02 22:45:00,
2013-02-02 14:50:00,45.6,41.4,30.27,East,88,2.0,2.0,85,0.00,,---,0.00,VWS V14.01,2013-02-02 22:50:00,
2013-02-02 14:55:00,45.6,41.4,30.27,North,360,0.0,2.0,85,0.00,,---,0.00,VWS V14.01,2013-02-02 22:55:00,
2013-02-02 15:00:00,45.8,41.2,30.27,SSE,159,2.0,3.0,84,0.00,,---,0.00,VWS V14.01,2013-02-02 23:00:00,
2013-02-02 15:05:00,45.7,41.2,30.27,ESE,123,0.0,5.0,84,0.00,,---,0.00,VWS V14.01,2013-02-02 23:05:00,
2013-02-02 15:10:00,45.8,41.2,30.28,SSE,160,1.0,5.0,84,0.00,,---,0.00,VWS V14.01,2013-02-02 23:10:00,
2013-02-02 15:15:00,45.3,41.1,30.28,South,187,0.0,5.0,85,0.00,,---,0.00,VWS V14.01,2013-02-02 23:15:00,
2013-02-02 15:20:00,44.6,40.7,30.28,ESE,115,1.0,4.0,86,0.00,,---,0.00,VWS V14.01,2013-02-02 23:20:00,
2013-02-02 15:25:00,44.0,40.4,30.28,SE,136,0.0,4.0,87,0.00,,---,0.00,VWS V14.01,2013-02-02 23:25:00,
2013-02-02 15:30:00,43.8,40.5,30.27,SE,141,0.0,4.0,88,0.00,,---,0.00,VWS V14.01,2013-02-02 23:30:00,
2013-02-02 15:35:00,43.5,40.2,30.27,SE,130,2.0,4.0,88,0.00,,---,0.00,VWS V14.01,2013-02-02 23:35:00,
2013-02-02 15:40:00,43.3,40.0,30.27,ENE,78,2.0,4.0,88,0.00,,---,0.00,VWS V14.01,2013-02-02 23:40:00,
2013-02-02 15:45:00,43.0,40.0,30.27,East,101,3.0,4.0,89,0.00,,---,0.00,VWS V14.01,2013-02-02 23:45:00,
2013-02-02 15:50:00,42.6,39.6,30.27,East,92,0.0,3.0,89,0.00,,---,0.00,VWS V14.01,2013-02-02 23:50:00,
2013-02-02 15:55:00,42.5,39.8,30.27,ESE,119,2.0,4.0,90,0.00,,---,0.00,VWS V14.01,2013-02-02 23:55:00,
2013-02-02 16:00:00,42.4,39.7,30.27,East,94,1.0,4.0,90,0.00,,---,0.00,VWS V14.01,2013-02-03 00:00:00,
2013-02-02 16:05:00,42.3,39.6,30.27,East,95,0.0,2.0,90,0.00,,---,0.00,VWS V14.01,2013-02-03 00:05:00,
2013-02-02 16:10:00,42.3,39.9,30.27,ESE,119,3.0,3.0,91,0.00,,---,0.00,VWS V14.01,2013-02-03 00:10:00,
2013-02-02 16:15:00,42.1,39.4,30.27,South,182,0.0,5.0,90,0.00,,---,0.00,VWS V14.01,2013-02-03 00:15:00,
2013-02-02 16:20:00,41.9,39.5,30.27,SSW,192,0.0,4.0,91,0.00,,---,0.00,VWS V14.01,2013-02-03 00:20:00,
2013-02-02 16:25:00,41.8,39.4,30.27,ESE,108,1.0,4.0,91,0.00,,---,0.00,VWS V14.01,2013-02-03 00:25:00,
2013-02-02 16:30:00,41.7,39.3,30.27,ESE,108,1.0,4.0,91,0.00,,---,0.00,VWS V14.01,2013-02-03 00:30:00,
2013-02-02 16:35:00,41.6,39.2,30.27,SE,130,2.0,3.0,91,0.00,,---,0.00,VWS V14.01,2013-02-03 00:35:00,
2013-02-02 16:40:00,41.5,39.1,30.27,SSE,153,1.0,3.0,91,0.00,,---,0.00,VWS V14.01,2013-02-03 00:40:00,
2013-02-02 16:45:00,41.4,39.2,30.26,South,185,0.0,3.0,92,0.00,,---,0.00,VWS V14.01,2013-02-03 00:45:00,
2013-02-02 16:50:00,41.3,39.2,30.26,ESE,123,1.0,1.0,92,0.00,,---,0.00,VWS V14.01,2013-02-03 00:50:00,
2013-02-02 16:55:00,41.3,39.2,30.27,NE,38,2.0,5.0,92,0.00,,---,0.00,VWS V14.01,2013-02-03 00:55:00,
2013-02-02 17:00:00,41.3,39.2,30.27,SSW,210,0.0,5.0,92,0.00,,---,0.00,VWS V14.01,2013-02-03 01:00:00,
2013-02-02 17:05:00,41.3,39.2,30.27,SSW,204,0.0,3.0,92,0.00,,---,0.00,VWS V14.01,2013-02-03 01:05:00,
2013-02-02 17:10:00,41.3,39.2,30.27,South,180,0.0,3.0,92,0.00,,---,0.00,VWS V14.01,2013-02-03 01:10:00,
2013-02-02 17:15:00,41.3,39.2,30.26,ESE,111,0.0,3.0,92,0.00,,---,0.00,VWS V14.01,2013-02-03 01:15:00,
2013-02-02 17:20:00,41.3,39.2,30.26,East,89,0.0,3.0,92,0.00,,---,0.00,VWS V14.01,2013-02-03 01:20:00,
2013-02-02 17:25:00,41.3,39.2,30.27,East,89,0.0,3.0,92,0.00,,---,0.00,VWS V14.01,2013-02-03 01:25:00,
2013-02-02 17:29:00,41.3,39.2,30.27,East,89,0.0,3.0,92,0.00,,---,0.00,VWS V14.01,2013-02-03 01:29:00,
2013-02-02 17:34:00,41.3,39.2,30.27,WSW,243,0.0,2.0,92,0.00,,---,0.00,VWS V14.01,2013-02-03 01:34:00,
2013-02-02 17:39:00,41.3,39.2,30.27,NE,55,0.0,2.0,92,0.00,,---,0.00,VWS V14.01,2013-02-03 01:39:00,
2013-02-02 17:44:00,41.3,39.4,30.27,NE,55,0.0,2.0,93,0.00,,---,0.00,VWS V14.01,2013-02-03 01:44:00,
2013-02-02 17:49:00,41.3,39.4,30.27,NE,44,2.0,2.0,93,0.00,,---,0.00,VWS V14.01,2013-02-03 01:49:00,
2013-02-02 17:54:00,41.3,39.4,30.27,NE,44,0.0,2.0,93,0.00,,---,0.00,VWS V14.01,2013-02-03 01:54:00,
2013-02-02 17:59:00,41.2,39.3,30.27,NE,50,0.0,2.0,93,0.00,,---,0.00,VWS V14.01,2013-02-03 01:59:00,
2013-02-02 18:04:00,41.2,39.3,30.27,NE,50,0.0,0.0,93,0.00,,---,0.00,VWS V14.01,2013-02-03 02:04:00,
2013-02-02 18:09:00,41.2,39.3,30.27,NE,50,0.0,0.0,93,0.00,,---,0.00,VWS V14.01,2013-02-03 02:09:00,
2013-02-02 18:14:00,41.3,39.4,30.27,NE,50,0.0,0.0,93,0.00,,---,0.00,VWS V14.01,2013-02-03 02:14:00,
2013-02-02 18:19:00,41.3,39.4,30.27,NE,50,0.0,0.0,93,0.00,,---,0.00,VWS V14.01,2013-02-03 02:19:00,
2013-02-02 18:24:00,41.2,39.3,30.27,NE,50,0.0,0.0,93,0.00,,---,0.00,VWS V14.01,2013-02-03 02:24:00,
2013-02-02 18:29:00,41.2,39.3,30.26,ENE,63,0.0,1.0,93,0.00,,---,0.00,VWS V14.01,2013-02-03 02:29:00,
2013-02-02 18:34:00,41.2,39.3,30.26,ENE,63,0.0,1.0,93,0.00,,---,0.00,VWS V14.01,2013-02-03 02:34:00,
2013-02-02 18:39:00,41.1,39.2,30.26,NE,55,0.0,2.0,93,0.00,,---,0.00,VWS V14.01,2013-02-03 02:39:00,
2013-02-02 18:44:00,41.0,39.4,30.26,NE,35,0.0,2.0,94,0.00,,---,0.00,VWS V14.01,2013-02-03 02:44:00,
2013-02-02 18:49:00,41.0,39.4,30.27,NE,35,0.0,0.0,94,0.00,,---,0.00,VWS V14.01,2013-02-03 02:49:00,
2013-02-02 18:54:00,41.0,39.4,30.27,NE,35,0.0,0.0,94,0.00,,---,0.00,VWS V14.01,2013-02-03 02:54:00,
2013-02-02 18:59:00,40.9,39.3,30.27,NE,35,0.0,0.0,94,0.00,,---,0.00,VWS V14.01,2013-02-03 02:59:00,
2013-02-02 19:04:00,40.9,39.3,30.27,NE,35,0.0,0.0,94,0.00,,---,0.00,VWS V14.01,2013-02-03 03:04:00,
2013-02-02 19:09:00,40.9,39.3,30.27,NE,35,0.0,0.0,94,0.00,,---,0.00,VWS V14.01,2013-02-03 03:09:00,
2013-02-02 19:14:00,40.9,39.3,30.27,ENE,71,0.0,0.0,94,0.00,,---,0.00,VWS V14.01,2013-02-03 03:14:00,
2013-02-02 19:19:00,40.9,39.3,30.27,ENE,71,0.0,0.0,94,0.00,,---,0.00,VWS V14.01,2013-02-03 03:19:00,
2013-02-02 19:24:00,40.9,39.3,30.27,ENE,57,0.0,0.0,94,0.00,,---,0.00,VWS V14.01,2013-02-03 03:24:00,
2013-02-02 19:29:00,40.8,39.2,30.27,NE,42,0.0,0.0,94,0.00,,---,0.00,VWS V14.01,2013-02-03 03:29:00,
2013-02-02 19:34:00,40.8,39.2,30.27,ENE,65,0.0,0.0,94,0.00,,---,0.00,VWS V14.01,2013-02-03 03:34:00,
2013-02-02 19:39:00,40.8,39.2,30.27,ENE,65,0.0,0.0,94,0.00,,---,0.00,VWS V14.01,2013-02-03 03:39:00,
2013-02-02 19:44:00,40.7,39.1,30.27,ENE,65,0.0,0.0,94,0.00,,---,0.00,VWS V14.01,2013-02-03 03:44:00,
2013-02-02 19:49:00,40.7,39.1,30.27,ESE,118,0.0,0.0,94,0.00,,---,0.00,VWS V14.01,2013-02-03 03:49:00,
2013-02-02 19:54:00,40.7,39.1,30.27,SSE,159,0.0,0.0,94,0.00,,---,0.00,VWS V14.01,2013-02-03 03:54:00,
2013-02-02 19:59:00,40.6,39.0,30.27,WSW,256,0.0,0.0,94,0.00,,---,0.00,VWS V14.01,2013-02-03 03:59:00,
2013-02-02 20:04:00,40.6,39.0,30.27,WSW,256,0.0,0.0,94,0.00,,---,0.00,VWS V14.01,2013-02-03 04:04:00,
2013-02-02 20:09:00,40.5,38.9,30.27,SW,218,0.0,0.0,94,0.00,,---,0.00,VWS V14.01,2013-02-03 04:09:00,
2013-02-02 20:14:00,40.5,38.9,30.28,SW,218,0.0,0.0,94,0.00,,---,0.00,VWS V14.01,2013-02-03 04:14:00,
2013-02-02 20:19:00,40.5,38.9,30.28,SW,218,0.0,0.0,94,0.00,,---,0.00,VWS V14.01,2013-02-03 04:19:00,
2013-02-02 20:24:00,40.4,38.8,30.28,East,91,0.0,0.0,94,0.00,,---,0.00,VWS V14.01,2013-02-03 04:24:00,
2013-02-02 20:29:00,40.4,38.8,30.28,East,91,0.0,0.0,94,0.00,,---,0.00,VWS V14.01,2013-02-03 04:29:00,
2013-02-02 20:34:00,40.4,38.8,30.28,East,91,0.0,0.0,94,0.00,,---,0.00,VWS V14.01,2013-02-03 04:34:00,
2013-02-02 20:39:00,40.4,38.8,30.28,East,91,0.0,0.0,94,0.00,,---,0.00,VWS V14.01,2013-02-03 04:39:00,
2013-02-02 20:44:00,40.4,38.8,30.28,East,90,0.0,0.0,94,0.00,,---,0.00,VWS V14.01,2013-02-03 04:44:00,
2013-02-02 20:49:00,40.4,38.8,30.27,SSE,147,0.0,0.0,94,0.00,,---,0.00,VWS V14.01,2013-02-03 04:49:00,
2013-02-02 20:54:00,40.4,38.8,30.27,SSE,147,0.0,0.0,94,0.00,,---,0.00,VWS V14.01,2013-02-03 04:54:00,
2013-02-02 20:59:00,40.4,38.8,30.27,SSE,147,0.0,0.0,94,0.00,,---,0.00,VWS V14.01,2013-02-03 04:59:00,
2013-02-02 21:00:00,40.4,38.8,30.27,SSE,147,0.0,0.0,94,0.00,,---,0.00,VWS V14.01,2013-02-03 05:00:00,
2013-02-02 21:01:00,40.4,38.8,30.27,ESE,123,0.0,0.0,94,0.00,,---,0.00,VWS V14.01,2013-02-03 05:01:00,
2013-02-02 21:06:00,40.3,38.7,30.27,ESE,123,0.0,0.0,94,0.00,,---,0.00,VWS V14.01,2013-02-03 05:06:00,
2013-02-02 21:11:00,40.2,38.6,30.27,ESE,120,0.0,0.0,94,0.00,,---,0.00,VWS V14.01,2013-02-03 05:11:00,
2013-02-02 21:16:00,40.1,38.8,30.27,NE,34,0.0,0.0,95,0.00,,---,0.00,VWS V14.01,2013-02-03 05:16:00,
2013-02-02 21:21:00,40.1,38.8,30.27,ENE,62,0.0,0.0,95,0.00,,---,0.00,VWS V14.01,2013-02-03 05:21:00,
2013-02-02 21:26:00,40.0,38.7,30.27,NE,49,0.0,0.0,95,0.00,,---,0.00,VWS V14.01,2013-02-03 05:26:00,
2013-02-02 21:31:00,40.0,38.7,30.27,SW,219,0.0,0.0,95,0.00,,---,0.00,VWS V14.01,2013-02-03 05:31:00,
2013-02-02 21:36:00,39.9,38.6,30.27,SW,219,0.0,0.0,95,0.00,,---,0.00,VWS V14.01,2013-02-03 05:36:00,
2013-02-02 21:41:00,39.8,38.2,30.27,ESE,105,3.0,5.0,94,0.00,,---,0.00,VWS V14.01,2013-02-03 05:41:00,
2013-02-02 21:46:00,39.6,38.3,30.27,SW,224,0.0,0.0,95,0.00,,---,0.00,VWS V14.01,2013-02-03 05:46:00,
2013-02-02 21:51:00,39.6,38.3,30.26,ESE,111,0.0,3.0,95,0.00,,---,0.00,VWS V14.01,2013-02-03 05:51:00,
2013-02-02 21:56:00,39.5,38.2,30.27,ESE,112,2.0,3.0,95,0.00,,---,0.00,VWS V14.01,2013-02-03 05:56:00,
2013-02-02 22:01:00,39.4,38.1,30.26,ESE,109,0.0,0.0,95,0.00,,---,0.00,VWS V14.01,2013-02-03 06:01:00,
2013-02-02 22:06:00,39.4,38.1,30.27,NE,54,0.0,0.0,95,0.00,,---,0.00,VWS V14.01,2013-02-03 06:06:00,
2013-02-02 22:11:00,39.4,38.1,30.27,East,90,0.0,0.0,95,0.00,,---,0.00,VWS V14.01,2013-02-03 06:11:00,
2013-02-02 22:16:00,39.4,38.4,30.27,East,90,0.0,0.0,96,0.00,,---,0.00,VWS V14.01,2013-02-03 06:16:00,
2013-02-02 22:21:00,39.4,38.4,30.28,WSW,257,0.0,0.0,96,0.00,,---,0.00,VWS V14.01,2013-02-03 06:21:00,
2013-02-02 22:26:00,39.4,38.4,30.28,WSW,257,0.0,0.0,96,0.00,,---,0.00,VWS V14.01,2013-02-03 06:26:00,
2013-02-02 22:31:00,39.4,38.4,30.28,WSW,257,0.0,0.0,96,0.00,,---,0.00,VWS V14.01,2013-02-03 06:31:00,
2013-02-02 22:36:00,39.4,38.4,30.28,WSW,257,0.0,0.0,96,0.00,,---,0.00,VWS V14.01,2013-02-03 06:36:00,
2013-02-02 22:41:00,39.5,38.5,30.28,WSW,257,0.0,0.0,96,0.00,,---,0.00,VWS V14.01,2013-02-03 06:41:00,
2013-02-02 22:46:00,39.4,38.4,30.28,WSW,257,0.0,0.0,96,0.00,,---,0.00,VWS V14.01,2013-02-03 06:46:00,
2013-02-02 22:51:00,39.4,38.1,30.28,WSW,257,0.0,0.0,95,0.00,,---,0.00,VWS V14.01,2013-02-03 06:51:00,
2013-02-02 22:56:00,39.3,38.0,30.28,WSW,257,0.0,0.0,95,0.00,,---,0.00,VWS V14.01,2013-02-03 06:56:00,
2013-02-02 23:01:00,39.4,38.1,30.28,WSW,257,0.0,0.0,95,0.00,,---,0.00,VWS V14.01,2013-02-03 07:01:00,
2013-02-02 23:06:00,39.3,38.0,30.29,WSW,257,0.0,0.0,95,0.00,,---,0.00,VWS V14.01,2013-02-03 07:06:00,
2013-02-02 23:11:00,39.3,38.3,30.29,West,264,0.0,0.0,96,0.00,,---,0.00,VWS V14.01,2013-02-03 07:11:00,
2013-02-02 23:16:00,39.2,37.9,30.29,West,264,0.0,0.0,95,0.00,,---,0.00,VWS V14.01,2013-02-03 07:16:00,
2013-02-02 23:21:00,39.2,37.9,30.29,West,264,0.0,0.0,95,0.00,,---,0.00,VWS V14.01,2013-02-03 07:21:00,
2013-02-02 23:26:00,39.2,37.9,30.29,SW,236,0.0,0.0,95,0.00,,---,0.00,VWS V14.01,2013-02-03 07:26:00,
2013-02-02 23:31:00,39.1,38.1,30.30,SW,236,0.0,0.0,96,0.00,,---,0.00,VWS V14.01,2013-02-03 07:31:00,
2013-02-02 23:36:00,39.2,38.2,30.30,SW,236,0.0,0.0,96,0.00,,---,0.00,VWS V14.01,2013-02-03 07:36:00,
2013-02-02 23:41:00,39.2,38.2,30.30,SSW,202,0.0,0.0,96,0.00,,---,0.00,VWS V14.01,2013-02-03 07:41:00,
2013-02-02 23:46:00,39.2,37.9,30.29,WSW,252,0.0,0.0,95,0.00,,---,0.00,VWS V14.01,2013-02-03 07:46:00,
2013-02-02 23:51:00,39.1,37.8,30.29,ESE,115,0.0,0.0,95,0.00,,---,0.00,VWS V14.01,2013-02-03 07:51:00,
2013-02-02 23:56:00,39.0,37.7,30.28,SE,144,0.0,0.0,95,0.00,,---,0.00,VWS V14.01,2013-02-03 07:56:00,